createdAt,value
2018-03-03T00:00:48.935Z,-0.20
2018-03-03T00:03:16.003Z,-0.20
2018-03-03T00:05:43.067Z,-0.20
2018-03-03T00:08:11.047Z,-0.20
2018-03-03T00:10:38.106Z,-0.20
2018-03-03T00:13:05.167Z,-0.20
2018-03-03T00:15:32.147Z,-0.20
2018-03-03T00:18:00.722Z,-0.20
2018-03-03T00:20:27.774Z,-0.20
2018-03-03T00:22:54.834Z,-0.20
2018-03-03T00:25:21.819Z,-0.20
2018-03-03T00:27:48.791Z,-0.20
2018-03-03T00:30:15.814Z,-0.10
2018-03-03T00:32:42.871Z,-0.20
2018-03-03T00:35:09.935Z,-0.20
2018-03-03T00:37:36.907Z,-0.20
2018-03-03T00:40:03.898Z,-0.20
2018-03-03T00:42:31.636Z,-0.10
2018-03-03T00:44:58.687Z,-0.20
2018-03-03T00:47:25.658Z,-0.20
2018-03-03T00:49:52.643Z,-0.20
2018-03-03T00:52:19.659Z,-0.10
2018-03-03T00:54:46.727Z,-0.20
2018-03-03T00:57:13.700Z,-0.20
2018-03-03T00:59:40.702Z,-0.10
2018-03-03T01:02:08.443Z,-0.20
2018-03-03T01:04:36.194Z,-0.10
2018-03-03T01:07:03.162Z,-0.20
2018-03-03T01:09:30.134Z,-0.20
2018-03-03T01:11:57.114Z,-0.20
2018-03-03T01:14:24.955Z,-0.10
2018-03-03T01:16:51.998Z,-0.20
2018-03-03T01:19:18.976Z,-0.10
2018-03-03T01:21:46.024Z,-0.10
2018-03-03T01:24:13.039Z,-0.10
2018-03-03T01:26:40.885Z,-0.10
2018-03-03T01:29:07.851Z,-0.10
2018-03-03T01:31:34.887Z,-0.10
2018-03-03T01:34:01.859Z,-0.20
2018-03-03T01:36:28.899Z,-0.20
2018-03-03T01:38:55.879Z,-0.20
2018-03-03T01:41:22.864Z,-0.20
2018-03-03T01:43:50.608Z,-0.10
2018-03-03T01:46:17.595Z,-0.20
2018-03-03T01:48:44.607Z,-0.10
2018-03-03T01:51:17.499Z,-0.10
2018-03-03T01:53:44.567Z,-0.10
2018-03-03T01:56:11.623Z,-0.10
2018-03-03T01:58:39.611Z,-0.10
2018-03-03T02:01:06.672Z,-0.10
2018-03-03T02:03:33.643Z,-0.10
2018-03-03T02:06:00.624Z,-0.10
2018-03-03T02:08:28.668Z,-0.10
2018-03-03T02:10:55.727Z,-0.10
2018-03-03T02:13:22.707Z,-0.10
2018-03-03T02:15:49.679Z,-0.10
2018-03-03T02:18:17.623Z,-0.10
2018-03-03T02:20:44.686Z,-0.10
2018-03-03T02:23:11.751Z,-0.10
2018-03-03T02:25:38.730Z,-0.10
2018-03-03T02:28:05.705Z,-0.10
2018-03-03T02:30:32.723Z,-0.20
2018-03-03T02:32:59.789Z,-0.20
2018-03-03T02:35:26.848Z,-0.20
2018-03-03T02:37:53.899Z,-0.20
2018-03-03T02:40:20.874Z,-0.20
2018-03-03T02:42:47.864Z,-0.20
2018-03-03T02:45:14.879Z,-0.20
2018-03-03T02:47:41.864Z,-0.20
2018-03-03T02:50:08.844Z,-0.20
2018-03-03T02:52:35.855Z,-0.20
2018-03-03T02:55:02.823Z,-0.20
2018-03-03T02:57:29.871Z,-0.20
2018-03-03T02:59:56.844Z,-0.20
2018-03-03T03:02:23.888Z,-0.20
2018-03-03T03:04:50.956Z,-0.30
2018-03-03T03:07:17.937Z,-0.30
2018-03-03T03:09:44.967Z,-0.30
2018-03-03T03:12:12.036Z,-0.30
2018-03-03T03:14:39.095Z,-0.30
2018-03-03T03:17:06.058Z,-0.30
2018-03-03T03:19:33.099Z,-0.30
2018-03-03T03:22:00.163Z,-0.30
2018-03-03T03:24:27.227Z,-0.30
2018-03-03T03:26:54.200Z,-0.30
2018-03-03T03:29:21.184Z,-0.30
2018-03-03T03:31:49.663Z,-0.40
2018-03-03T03:34:16.643Z,-0.40
2018-03-03T03:36:44.482Z,-0.40
2018-03-03T03:39:11.536Z,-0.40
2018-03-03T03:41:38.595Z,-0.40
2018-03-03T03:44:05.578Z,-0.40
2018-03-03T03:46:32.693Z,-0.40
2018-03-03T03:49:00.415Z,-0.40
2018-03-03T03:51:27.450Z,-0.40
2018-03-03T03:53:54.427Z,-0.40
2018-03-03T03:56:21.474Z,-0.40
2018-03-03T03:58:48.439Z,-0.40
2018-03-03T04:01:15.487Z,-0.40
2018-03-03T04:03:42.464Z,-0.40
2018-03-03T04:06:09.444Z,-0.40
2018-03-03T04:08:37.311Z,-0.40
2018-03-03T04:11:04.445Z,-0.40
2018-03-03T04:13:31.414Z,-0.40
2018-03-03T04:15:58.464Z,-0.40
2018-03-03T04:18:26.376Z,-0.40
2018-03-03T04:20:53.403Z,-0.40
2018-03-03T04:23:20.459Z,-0.40
2018-03-03T04:25:47.524Z,-0.30
2018-03-03T04:28:15.394Z,-0.40
2018-03-03T04:30:42.383Z,-0.30
2018-03-03T04:33:09.356Z,-0.30
2018-03-03T04:35:36.342Z,-0.30
2018-03-03T04:38:03.318Z,-0.30
2018-03-03T04:40:30.301Z,-0.30
2018-03-03T04:42:57.355Z,-0.30
2018-03-03T04:45:24.411Z,-0.30
2018-03-03T04:47:51.395Z,-0.30
2018-03-03T04:50:18.384Z,-0.30
2018-03-03T04:52:46.123Z,-0.30
2018-03-03T04:55:13.095Z,-0.30
2018-03-03T04:57:40.080Z,-0.30
2018-03-03T05:00:17.718Z,-0.30
2018-03-03T05:02:48.375Z,-0.30
2018-03-03T05:05:19.011Z,-0.20
2018-03-03T05:07:54.759Z,-0.30
2018-03-03T05:10:34.636Z,-0.20
2018-03-03T05:13:07.544Z,-0.30
2018-03-03T05:15:51.231Z,-0.30
2018-03-03T05:18:38.039Z,-0.30
2018-03-03T05:21:11.496Z,-0.30
2018-03-03T05:23:44.903Z,-0.30
2018-03-03T05:26:18.535Z,-0.30
2018-03-03T05:28:51.338Z,-0.30
2018-03-03T05:31:24.114Z,-0.30
2018-03-03T05:33:56.820Z,-0.30
2018-03-03T05:36:29.531Z,-0.20
2018-03-03T05:39:15.350Z,-0.30
2018-03-03T05:41:48.079Z,-0.30
2018-03-03T05:44:21.517Z,-0.30
2018-03-03T05:46:49.324Z,-0.30
2018-03-03T05:49:35.155Z,-0.30
2018-03-03T05:52:17.927Z,-0.30
2018-03-03T05:54:50.683Z,-0.30
2018-03-03T05:57:21.408Z,-0.30
2018-03-03T05:59:48.379Z,-0.30
2018-03-03T06:02:15.363Z,-0.30
2018-03-03T06:04:58.876Z,-0.30
2018-03-03T06:07:31.574Z,-0.30
2018-03-03T06:09:59.359Z,-0.30
2018-03-03T06:12:26.387Z,-0.30
2018-03-03T06:14:53.362Z,-0.30
2018-03-03T06:17:20.403Z,-0.20
2018-03-03T06:19:47.469Z,-0.20
2018-03-03T06:22:14.437Z,-0.30
2018-03-03T06:24:41.411Z,-0.30
2018-03-03T06:27:08.383Z,-0.30
2018-03-03T06:29:35.495Z,-0.30
2018-03-03T06:32:02.471Z,-0.20
2018-03-03T06:34:29.511Z,-0.30
2018-03-03T06:36:56.486Z,-0.30
2018-03-03T06:39:23.535Z,-0.20
2018-03-03T06:41:50.529Z,-0.20
2018-03-03T06:44:17.553Z,-0.20
2018-03-03T06:46:44.543Z,-0.20
2018-03-03T06:49:11.519Z,-0.20
2018-03-03T06:51:39.267Z,-0.20
2018-03-03T06:54:12.034Z,-0.20
2018-03-03T06:56:39.099Z,-0.10
2018-03-03T06:59:06.079Z,-0.20
2018-03-03T07:01:33.055Z,-0.20
2018-03-03T07:04:00.055Z,-0.20
2018-03-03T07:06:27.031Z,-0.10
2018-03-03T07:08:54.020Z,-0.10
2018-03-03T07:11:21.054Z,-0.10
2018-03-03T07:13:48.048Z,-0.10
2018-03-03T07:16:15.015Z,0.00
2018-03-03T07:18:42.759Z,0.00
2018-03-03T07:21:09.743Z,0.00
2018-03-03T07:23:36.715Z,0.00
2018-03-03T07:26:04.584Z,0.10
2018-03-03T07:28:32.546Z,0.10
2018-03-03T07:30:59.514Z,0.10
2018-03-03T07:33:26.488Z,0.10
2018-03-03T07:35:54.311Z,0.20
2018-03-03T07:38:21.375Z,0.10
2018-03-03T07:40:48.440Z,0.20
2018-03-03T07:43:15.507Z,0.20
2018-03-03T07:45:42.482Z,0.20
2018-03-03T07:48:09.451Z,0.20
2018-03-03T07:50:36.435Z,0.20
2018-03-03T07:53:04.254Z,0.30
2018-03-03T07:55:31.226Z,0.30
2018-03-03T07:57:58.267Z,0.30
2018-03-03T08:00:25.247Z,0.30
2018-03-03T08:02:52.228Z,0.40
2018-03-03T08:05:20.711Z,0.40
2018-03-03T08:07:47.683Z,0.40
2018-03-03T08:10:15.422Z,0.50
2018-03-03T08:12:42.403Z,0.50
2018-03-03T08:15:09.386Z,0.50
2018-03-03T08:17:37.123Z,0.60
2018-03-03T08:20:04.163Z,0.60
2018-03-03T08:22:31.223Z,0.60
2018-03-03T08:24:58.196Z,0.70
2018-03-03T08:27:25.168Z,0.80
2018-03-03T08:29:52.138Z,1.10
2018-03-03T08:32:19.164Z,1.30
2018-03-03T08:34:46.243Z,1.30
2018-03-03T08:37:13.203Z,1.30
2018-03-03T08:39:40.238Z,1.40
2018-03-03T08:42:08.020Z,1.40
2018-03-03T08:44:34.996Z,1.30
2018-03-03T08:47:01.974Z,1.30
2018-03-03T08:49:28.983Z,1.40
2018-03-03T08:51:56.043Z,1.40
2018-03-03T08:54:23.024Z,1.40
2018-03-03T08:56:50.075Z,1.50
2018-03-03T08:59:17.046Z,1.50
2018-03-03T09:01:44.019Z,1.50
2018-03-03T09:04:10.994Z,1.50
2018-03-03T09:06:37.960Z,1.50
2018-03-03T09:09:05.698Z,1.60
2018-03-03T09:11:32.731Z,1.60
2018-03-03T09:13:59.795Z,1.60
2018-03-03T09:16:26.855Z,1.60
2018-03-03T09:18:53.835Z,1.60
2018-03-03T09:21:20.815Z,1.60
2018-03-03T09:23:47.784Z,1.60
2018-03-03T09:26:15.523Z,1.70
2018-03-03T09:28:42.511Z,1.70
2018-03-03T09:31:09.484Z,1.70
2018-03-03T09:33:37.228Z,1.70
2018-03-03T09:36:04.263Z,1.70
2018-03-03T09:38:31.235Z,1.70
2018-03-03T09:40:58.214Z,1.70
2018-03-03T09:43:25.189Z,1.70
2018-03-03T09:45:53.011Z,1.70
2018-03-03T09:48:19.987Z,1.70
2018-03-03T09:50:46.963Z,1.70
2018-03-03T09:53:13.996Z,1.70
2018-03-03T09:55:40.970Z,1.70
2018-03-03T09:58:08.355Z,1.70
2018-03-03T10:00:35.302Z,1.70
2018-03-03T10:03:02.332Z,1.70
2018-03-03T10:05:29.396Z,1.70
2018-03-03T10:07:56.365Z,1.80
2018-03-03T10:10:23.407Z,1.80
2018-03-03T10:12:50.389Z,1.80
2018-03-03T10:15:17.424Z,1.90
2018-03-03T10:17:44.399Z,1.90
2018-03-03T10:20:11.447Z,2.00
2018-03-03T10:22:38.419Z,2.00
2018-03-03T10:25:05.396Z,2.00
2018-03-03T10:27:32.367Z,2.10
2018-03-03T10:29:59.339Z,2.10
2018-03-03T10:32:27.079Z,2.10
2018-03-03T10:34:54.050Z,2.10
2018-03-03T10:37:21.023Z,2.20
2018-03-03T10:39:48.901Z,2.20
2018-03-03T10:42:15.908Z,2.20
2018-03-03T10:44:42.883Z,2.20
2018-03-03T10:47:09.855Z,2.30
2018-03-03T10:49:38.440Z,2.40
2018-03-03T10:52:05.405Z,2.40
2018-03-03T10:54:32.370Z,2.40
2018-03-03T10:56:59.343Z,2.50
2018-03-03T10:59:27.078Z,2.50
2018-03-03T11:01:54.052Z,2.50
2018-03-03T11:04:21.020Z,2.60
2018-03-03T11:06:48.046Z,2.70
2018-03-03T11:09:15.015Z,2.70
2018-03-03T11:11:41.991Z,2.80
2018-03-03T11:14:08.955Z,2.80
2018-03-03T11:16:35.935Z,2.80
2018-03-03T11:19:03.674Z,3.00
2018-03-03T11:21:30.712Z,3.00
2018-03-03T11:23:57.684Z,3.00
2018-03-03T11:26:24.736Z,3.10
2018-03-03T11:28:51.707Z,3.20
2018-03-03T11:31:18.751Z,3.20
2018-03-03T11:33:45.728Z,3.40
2018-03-03T11:36:12.707Z,3.50
2018-03-03T11:38:39.683Z,3.50
2018-03-03T11:41:07.444Z,3.70
2018-03-03T11:43:34.427Z,3.70
2018-03-03T11:46:02.163Z,3.80
2018-03-03T11:48:29.142Z,3.80
2018-03-03T11:50:56.119Z,3.90
2018-03-03T11:53:23.916Z,4.10
2018-03-03T11:55:51.633Z,4.10
2018-03-03T11:58:18.630Z,4.10
2018-03-03T12:00:45.575Z,4.20
2018-03-03T12:03:13.319Z,4.20
2018-03-03T12:05:40.313Z,4.20
2018-03-03T12:08:08.052Z,4.30
2018-03-03T12:10:35.103Z,4.30
2018-03-03T12:13:02.091Z,4.40
2018-03-03T12:15:29.070Z,4.50
2018-03-03T12:17:56.812Z,4.50
2018-03-03T12:20:23.794Z,4.50
2018-03-03T12:22:50.807Z,4.50
2018-03-03T12:25:17.780Z,4.60
2018-03-03T12:27:44.772Z,4.60
2018-03-03T12:30:12.580Z,4.50
2018-03-03T12:32:40.367Z,4.50
2018-03-03T12:35:07.352Z,4.50
2018-03-03T12:37:34.319Z,4.40
2018-03-03T12:40:01.317Z,4.40
2018-03-03T12:42:28.267Z,4.50
2018-03-03T12:44:56.012Z,4.50
2018-03-03T12:47:23.039Z,4.50
2018-03-03T12:49:50.102Z,4.60
2018-03-03T12:52:17.076Z,4.60
2018-03-03T12:54:44.127Z,4.60
2018-03-03T12:57:11.092Z,4.60
2018-03-03T12:59:38.144Z,4.60
2018-03-03T13:02:05.198Z,4.60
2018-03-03T13:04:32.870Z,4.70
2018-03-03T13:06:59.938Z,4.70
2018-03-03T13:09:26.919Z,4.60
2018-03-03T13:11:53.895Z,4.70
2018-03-03T13:14:20.919Z,4.80
2018-03-03T13:16:47.884Z,4.90
2018-03-03T13:19:14.879Z,4.90
2018-03-03T13:21:42.619Z,5.10
2018-03-03T13:24:09.683Z,5.10
2018-03-03T13:26:36.736Z,5.40
2018-03-03T13:29:03.708Z,5.70
2018-03-03T13:31:30.742Z,6.10
2018-03-03T13:33:57.711Z,6.20
2018-03-03T13:36:24.687Z,6.10
2018-03-03T13:38:51.660Z,6.00
2018-03-03T13:41:19.411Z,6.00
2018-03-03T13:43:46.383Z,6.00
2018-03-03T13:46:13.363Z,6.10
2018-03-03T13:48:41.099Z,7.00
2018-03-03T13:51:08.080Z,6.90
2018-03-03T13:53:35.051Z,7.80
2018-03-03T13:56:02.797Z,8.00
2018-03-03T13:58:29.840Z,8.00
2018-03-03T14:00:57.540Z,7.70
2018-03-03T14:03:24.519Z,7.70
2018-03-03T14:05:51.504Z,7.70
2018-03-03T14:08:18.475Z,8.30
2018-03-03T14:10:45.443Z,8.90
2018-03-03T14:13:12.423Z,9.20
2018-03-03T14:15:39.449Z,9.00
2018-03-03T14:18:07.253Z,8.70
2018-03-03T14:20:34.303Z,8.70
2018-03-03T14:23:01.366Z,8.50
2018-03-03T14:25:28.340Z,8.40
2018-03-03T14:27:55.334Z,8.60
2018-03-03T14:30:23.154Z,8.90
2018-03-03T14:32:50.139Z,8.90
2018-03-03T14:35:17.107Z,9.10
2018-03-03T14:37:44.091Z,9.30
2018-03-03T14:40:11.831Z,9.20
2018-03-03T14:42:38.867Z,9.20
2018-03-03T14:45:05.839Z,9.40
2018-03-03T14:47:32.833Z,9.60
2018-03-03T14:49:59.796Z,9.40
2018-03-03T14:52:27.535Z,8.90
2018-03-03T14:54:54.503Z,8.80
2018-03-03T14:57:22.320Z,8.40
2018-03-03T14:59:49.291Z,8.40
2018-03-03T15:02:16.363Z,8.20
2018-03-03T15:04:43.332Z,8.30
2018-03-03T15:07:10.300Z,8.30
2018-03-03T15:09:37.375Z,8.20
2018-03-03T15:12:04.335Z,7.90
2018-03-03T15:14:31.414Z,7.60
2018-03-03T15:16:58.387Z,7.40
2018-03-03T15:19:25.502Z,7.30
2018-03-03T15:21:52.535Z,7.10
2018-03-03T15:24:19.514Z,6.80
2018-03-03T15:26:46.488Z,6.70
2018-03-03T15:29:13.471Z,6.50
2018-03-03T15:31:40.456Z,6.30
2018-03-03T15:34:07.419Z,6.20
2018-03-03T15:36:34.383Z,6.10
2018-03-03T15:39:01.359Z,6.00
2018-03-03T15:41:28.323Z,5.90
2018-03-03T15:43:55.307Z,5.80
2018-03-03T15:46:22.276Z,5.70
2018-03-03T15:48:50.187Z,5.50
2018-03-03T15:51:17.203Z,5.40
2018-03-03T15:53:44.179Z,5.30
2018-03-03T15:56:11.247Z,5.20
2018-03-03T15:58:39.175Z,5.00
2018-03-03T16:01:06.147Z,4.90
2018-03-03T16:03:33.119Z,4.80
2018-03-03T16:06:00.147Z,4.70
2018-03-03T16:08:27.228Z,4.60
2018-03-03T16:10:54.204Z,4.50
2018-03-03T16:13:21.171Z,4.50
2018-03-03T16:15:48.145Z,4.40
2018-03-03T16:18:15.207Z,4.30
2018-03-03T16:20:42.187Z,4.30
2018-03-03T16:23:09.159Z,4.20
2018-03-03T16:25:36.274Z,4.10
2018-03-03T16:28:03.195Z,4.00
2018-03-03T16:30:30.271Z,4.00
2018-03-03T16:32:57.336Z,3.90
2018-03-03T16:35:24.418Z,3.90
2018-03-03T16:37:51.379Z,3.90
2018-03-03T16:40:18.459Z,3.80
2018-03-03T16:42:45.419Z,3.80
2018-03-03T16:45:12.394Z,3.70
2018-03-03T16:47:39.359Z,3.70
2018-03-03T16:50:06.439Z,3.60
2018-03-03T16:52:33.507Z,3.50
2018-03-03T16:55:00.479Z,3.50
2018-03-03T16:57:27.562Z,3.40
2018-03-03T16:59:54.535Z,3.30
2018-03-03T17:02:21.599Z,3.30
2018-03-03T17:04:48.563Z,3.20
2018-03-03T17:07:15.535Z,3.20
2018-03-03T17:09:42.607Z,3.20
2018-03-03T17:12:09.578Z,3.10
2018-03-03T17:14:36.580Z,3.10
2018-03-03T17:17:03.532Z,3.00
2018-03-03T17:19:30.525Z,2.90
2018-03-03T17:21:57.499Z,2.90
2018-03-03T17:24:24.504Z,2.90
2018-03-03T17:26:52.273Z,2.80
2018-03-03T17:29:19.298Z,2.80
2018-03-03T17:31:46.321Z,2.80
2018-03-03T17:34:13.340Z,2.70
2018-03-03T17:36:41.141Z,2.70
2018-03-03T17:39:08.146Z,2.60
2018-03-03T17:41:35.174Z,2.60
2018-03-03T17:44:02.157Z,2.60
2018-03-03T17:46:29.168Z,2.50
2018-03-03T17:48:56.157Z,2.50
2018-03-03T17:51:23.922Z,2.50
2018-03-03T17:53:50.944Z,2.40
2018-03-03T17:56:18.722Z,2.40
2018-03-03T17:58:46.516Z,2.40
2018-03-03T18:01:14.308Z,2.40
2018-03-03T18:03:41.311Z,2.40
2018-03-03T18:06:08.404Z,2.40
2018-03-03T18:08:35.572Z,2.30
2018-03-03T18:11:02.569Z,2.30
2018-03-03T18:13:32.141Z,2.30
2018-03-03T18:15:59.184Z,2.30
2018-03-03T18:18:26.141Z,2.30
2018-03-03T18:20:53.141Z,2.30
2018-03-03T18:23:20.909Z,2.30
2018-03-03T18:25:47.912Z,2.20
2018-03-03T18:28:14.924Z,2.20
2018-03-03T18:30:41.938Z,2.20
2018-03-03T18:33:08.940Z,2.20
2018-03-03T18:35:35.926Z,2.20
2018-03-03T18:38:02.940Z,2.30
2018-03-03T18:40:29.973Z,2.30
2018-03-03T18:42:57.083Z,2.30
2018-03-03T18:45:24.051Z,2.30
2018-03-03T18:47:51.076Z,2.30
2018-03-03T18:50:18.142Z,2.30
2018-03-03T18:52:45.116Z,2.40
2018-03-03T18:55:12.190Z,2.40
2018-03-03T18:57:39.167Z,2.40
2018-03-03T19:00:06.158Z,2.40
2018-03-03T19:02:33.182Z,2.40
2018-03-03T19:05:00.976Z,2.40
2018-03-03T19:07:28.734Z,2.40
2018-03-03T19:09:55.755Z,2.40
2018-03-03T19:12:22.765Z,2.40
2018-03-03T19:14:49.775Z,2.50
2018-03-03T19:17:16.759Z,2.50
2018-03-03T19:19:44.516Z,2.50
2018-03-03T19:22:11.511Z,2.50
2018-03-03T19:24:39.305Z,2.50
2018-03-03T19:27:06.615Z,2.40
2018-03-03T19:29:33.592Z,2.50
2018-03-03T19:32:00.663Z,2.40
2018-03-03T19:34:27.724Z,2.50
2018-03-03T19:36:54.804Z,2.50
2018-03-03T19:39:21.780Z,2.50
2018-03-03T19:41:48.758Z,2.50
2018-03-03T19:44:15.743Z,2.50
2018-03-03T19:46:42.716Z,2.50
2018-03-03T19:49:09.759Z,2.50
2018-03-03T19:51:36.733Z,2.50
2018-03-03T19:54:03.711Z,2.50
2018-03-03T19:56:30.679Z,2.50
2018-03-03T19:58:57.661Z,2.50
2018-03-03T20:01:24.636Z,2.50
2018-03-03T20:03:51.606Z,2.50
2018-03-03T20:06:18.567Z,2.50
2018-03-03T20:08:45.548Z,2.50
2018-03-03T20:11:12.608Z,2.50
2018-03-03T20:13:39.613Z,2.50
2018-03-03T20:16:06.646Z,2.50
2018-03-03T20:18:33.651Z,2.50
2018-03-03T20:21:00.699Z,2.50
2018-03-03T20:23:27.670Z,2.50
2018-03-03T20:25:54.735Z,2.50
2018-03-03T20:28:21.708Z,2.50
2018-03-03T20:30:48.986Z,2.50
2018-03-03T20:33:15.955Z,2.50
2018-03-03T20:35:42.936Z,2.50
2018-03-03T20:38:10.547Z,2.50
2018-03-03T20:40:37.596Z,2.40
2018-03-03T20:43:04.572Z,2.40
2018-03-03T20:45:31.647Z,2.40
2018-03-03T20:47:58.617Z,2.40
2018-03-03T20:50:25.591Z,2.40
2018-03-03T20:52:52.563Z,2.40
2018-03-03T20:55:19.627Z,2.40
2018-03-03T20:57:46.599Z,2.40
2018-03-03T21:00:13.663Z,2.40
2018-03-03T21:02:40.723Z,2.40
2018-03-03T21:05:07.679Z,2.40
2018-03-03T21:07:35.544Z,2.30
2018-03-03T21:10:02.519Z,2.30
2018-03-03T21:12:33.001Z,2.40
2018-03-03T21:15:00.740Z,2.30
2018-03-03T21:17:27.707Z,2.30
2018-03-03T21:19:54.684Z,2.30
2018-03-03T21:22:21.732Z,2.30
2018-03-03T21:24:48.715Z,2.30
2018-03-03T21:27:15.790Z,2.30
2018-03-03T21:29:42.776Z,2.30
2018-03-03T21:32:09.826Z,2.30
2018-03-03T21:34:36.795Z,2.30
2018-03-03T21:37:03.780Z,2.30
2018-03-03T21:39:30.748Z,2.30
2018-03-03T21:41:57.723Z,2.30
2018-03-03T21:44:24.726Z,2.30
2018-03-03T21:46:51.680Z,2.30
2018-03-03T21:49:18.647Z,2.30
2018-03-03T21:51:45.619Z,2.30
2018-03-03T21:54:12.659Z,2.30
2018-03-03T21:56:39.651Z,2.30
2018-03-03T21:59:06.620Z,2.30
2018-03-03T22:01:33.677Z,2.30
2018-03-03T22:04:00.655Z,2.30
2018-03-03T22:06:27.622Z,2.30
2018-03-03T22:08:54.626Z,2.30
2018-03-03T22:11:21.576Z,2.30
2018-03-03T22:13:48.552Z,2.30
2018-03-03T22:16:15.599Z,2.30
2018-03-03T22:18:43.530Z,2.30
2018-03-03T22:21:10.567Z,2.30
2018-03-03T22:23:37.644Z,2.30
2018-03-03T22:26:04.610Z,2.30
2018-03-03T22:28:31.583Z,2.30
2018-03-03T22:30:58.555Z,2.20
2018-03-03T22:33:25.534Z,2.20
2018-03-03T22:35:52.599Z,2.20
2018-03-03T22:38:20.526Z,2.20
2018-03-03T22:40:47.510Z,2.20
2018-03-03T22:43:14.491Z,2.20
2018-03-03T22:45:41.463Z,2.10
2018-03-03T22:48:08.480Z,2.10
2018-03-03T22:50:35.658Z,2.10
2018-03-03T22:53:02.631Z,2.10
2018-03-03T22:55:29.617Z,2.10
2018-03-03T22:57:56.583Z,2.10
2018-03-03T23:00:23.567Z,2.10
2018-03-03T23:02:50.566Z,2.10
2018-03-03T23:05:17.545Z,2.10
2018-03-03T23:07:44.555Z,2.10
2018-03-03T23:10:11.535Z,2.10
2018-03-03T23:12:38.604Z,2.10
2018-03-03T23:15:05.603Z,2.10
2018-03-03T23:17:32.580Z,2.10
2018-03-03T23:19:59.554Z,2.00
2018-03-03T23:22:26.529Z,2.00
2018-03-03T23:24:53.505Z,2.00
2018-03-03T23:27:20.471Z,2.00
2018-03-03T23:29:47.452Z,2.00
2018-03-03T23:32:14.423Z,2.00
2018-03-03T23:34:41.394Z,2.00
2018-03-03T23:37:08.363Z,2.00
2018-03-03T23:39:36.107Z,2.00
2018-03-03T23:42:03.158Z,2.00
2018-03-03T23:44:30.131Z,2.00
2018-03-03T23:46:57.208Z,2.00
2018-03-03T23:49:24.282Z,2.00
2018-03-03T23:51:51.252Z,2.00
2018-03-03T23:54:18.331Z,2.00
2018-03-03T23:56:45.302Z,2.00
2018-03-03T23:59:12.364Z,2.00
